sensor_id;sensor_type;location;lat;lon;timestamp;P1;durP1;ratioP1;P2;durP2;ratioP2
21927;SDS011;11128;51.096;17.190;2023-04-10T00:00:32;69.07;;;28.42;;
21927;SDS011;11128;51.096;17.190;2023-04-10T00:05:35;80.45;;;29.13;;
21927;SDS011;11128;51.096;17.190;2023-04-10T00:10:36;99.28;;;30.45;;
21927;SDS011;11128;51.096;17.190;2023-04-10T00:15:37;67.28;;;27.48;;
21927;SDS011;11128;51.096;17.190;2023-04-10T00:20:38;74.00;;;27.55;;
21927;SDS011;11128;51.096;17.190;2023-04-10T00:25:40;90.78;;;31.20;;
21927;SDS011;11128;51.096;17.190;2023-04-10T00:30:41;92.30;;;29.88;;
21927;SDS011;11128;51.096;17.190;2023-04-10T00:35:42;76.60;;;30.42;;
21927;SDS011;11128;51.096;17.190;2023-04-10T00:40:43;130.55;;;42.83;;
21927;SDS011;11128;51.096;17.190;2023-04-10T00:45:44;101.00;;;39.63;;
21927;SDS011;11128;51.096;17.190;2023-04-10T00:50:46;88.82;;;34.47;;
21927;SDS011;11128;51.096;17.190;2023-04-10T00:55:47;77.65;;;34.45;;
21927;SDS011;11128;51.096;17.190;2023-04-10T01:00:49;92.97;;;35.42;;
21927;SDS011;11128;51.096;17.190;2023-04-10T01:05:55;87.88;;;32.22;;
21927;SDS011;11128;51.096;17.190;2023-04-10T01:11:22;95.00;;;33.78;;
21927;SDS011;11128;51.096;17.190;2023-04-10T01:16:25;97.80;;;33.50;;
21927;SDS011;11128;51.096;17.190;2023-04-10T01:21:35;70.65;;;30.67;;
21927;SDS011;11128;51.096;17.190;2023-04-10T01:26:41;85.75;;;30.75;;
21927;SDS011;11128;51.096;17.190;2023-04-10T01:31:53;76.15;;;30.10;;
21927;SDS011;11128;51.096;17.190;2023-04-10T01:37:02;116.95;;;32.38;;
21927;SDS011;11128;51.096;17.190;2023-04-10T01:42:08;109.50;;;32.97;;
21927;SDS011;11128;51.096;17.190;2023-04-10T01:47:12;102.05;;;30.48;;
21927;SDS011;11128;51.096;17.190;2023-04-10T01:52:16;106.50;;;31.70;;
21927;SDS011;11128;51.096;17.190;2023-04-10T01:57:18;120.47;;;30.60;;
21927;SDS011;11128;51.096;17.190;2023-04-10T02:02:19;124.50;;;31.45;;
21927;SDS011;11128;51.096;17.190;2023-04-10T02:07:26;114.25;;;30.08;;
21927;SDS011;11128;51.096;17.190;2023-04-10T02:12:38;137.98;;;32.33;;
21927;SDS011;11128;51.096;17.190;2023-04-10T02:22:47;119.97;;;30.38;;
21927;SDS011;11128;51.096;17.190;2023-04-10T02:27:49;113.68;;;29.63;;
21927;SDS011;11128;51.096;17.190;2023-04-10T02:32:50;116.55;;;30.65;;
21927;SDS011;11128;51.096;17.190;2023-04-10T02:37:51;95.93;;;28.23;;
21927;SDS011;11128;51.096;17.190;2023-04-10T02:42:52;103.20;;;30.52;;
21927;SDS011;11128;51.096;17.190;2023-04-10T02:47:53;88.82;;;30.75;;
21927;SDS011;11128;51.096;17.190;2023-04-10T02:52:55;78.60;;;30.33;;
21927;SDS011;11128;51.096;17.190;2023-04-10T02:57:56;74.72;;;28.30;;
21927;SDS011;11128;51.096;17.190;2023-04-10T03:02:57;71.85;;;27.00;;
21927;SDS011;11128;51.096;17.190;2023-04-10T03:07:58;78.65;;;27.73;;
21927;SDS011;11128;51.096;17.190;2023-04-10T03:12:59;77.65;;;27.92;;
21927;SDS011;11128;51.096;17.190;2023-04-10T03:18:01;69.80;;;26.73;;
21927;SDS011;11128;51.096;17.190;2023-04-10T03:23:03;81.25;;;27.00;;
21927;SDS011;11128;51.096;17.190;2023-04-10T03:28:05;85.55;;;30.70;;
21927;SDS011;11128;51.096;17.190;2023-04-10T03:33:07;83.35;;;28.17;;
21927;SDS011;11128;51.096;17.190;2023-04-10T03:38:08;70.47;;;28.48;;
21927;SDS011;11128;51.096;17.190;2023-04-10T03:43:09;82.70;;;28.65;;
21927;SDS011;11128;51.096;17.190;2023-04-10T03:48:10;81.68;;;30.27;;
21927;SDS011;11128;51.096;17.190;2023-04-10T03:53:11;69.97;;;28.33;;
21927;SDS011;11128;51.096;17.190;2023-04-10T03:58:12;76.65;;;29.67;;
21927;SDS011;11128;51.096;17.190;2023-04-10T04:03:14;89.32;;;32.58;;
21927;SDS011;11128;51.096;17.190;2023-04-10T04:08:15;89.05;;;32.65;;
21927;SDS011;11128;51.096;17.190;2023-04-10T04:13:16;90.75;;;31.40;;
21927;SDS011;11128;51.096;17.190;2023-04-10T04:18:18;90.25;;;32.08;;
21927;SDS011;11128;51.096;17.190;2023-04-10T04:23:19;92.18;;;30.88;;
21927;SDS011;11128;51.096;17.190;2023-04-10T04:28:20;81.13;;;30.80;;
21927;SDS011;11128;51.096;17.190;2023-04-10T04:33:22;84.75;;;29.40;;
21927;SDS011;11128;51.096;17.190;2023-04-10T04:38:23;88.93;;;31.80;;
21927;SDS011;11128;51.096;17.190;2023-04-10T04:43:24;84.60;;;29.73;;
21927;SDS011;11128;51.096;17.190;2023-04-10T04:48:25;72.28;;;28.25;;
21927;SDS011;11128;51.096;17.190;2023-04-10T04:53:26;81.38;;;30.30;;
21927;SDS011;11128;51.096;17.190;2023-04-10T04:58:27;80.70;;;30.63;;
21927;SDS011;11128;51.096;17.190;2023-04-10T05:03:29;84.72;;;28.40;;
21927;SDS011;11128;51.096;17.190;2023-04-10T05:08:31;71.45;;;27.42;;
21927;SDS011;11128;51.096;17.190;2023-04-10T05:13:32;82.05;;;28.40;;
21927;SDS011;11128;51.096;17.190;2023-04-10T05:18:34;79.72;;;29.00;;
21927;SDS011;11128;51.096;17.190;2023-04-10T05:23:35;111.93;;;34.72;;
21927;SDS011;11128;51.096;17.190;2023-04-10T05:28:36;81.22;;;28.08;;
21927;SDS011;11128;51.096;17.190;2023-04-10T05:33:37;70.13;;;29.02;;
21927;SDS011;11128;51.096;17.190;2023-04-10T05:38:38;72.47;;;27.52;;
21927;SDS011;11128;51.096;17.190;2023-04-10T05:43:40;64.88;;;26.58;;
21927;SDS011;11128;51.096;17.190;2023-04-10T05:48:41;68.40;;;27.23;;
21927;SDS011;11128;51.096;17.190;2023-04-10T05:53:42;71.80;;;27.42;;
21927;SDS011;11128;51.096;17.190;2023-04-10T05:58:43;85.63;;;25.90;;
21927;SDS011;11128;51.096;17.190;2023-04-10T06:03:44;65.88;;;25.63;;
21927;SDS011;11128;51.096;17.190;2023-04-10T06:08:45;65.20;;;26.70;;
21927;SDS011;11128;51.096;17.190;2023-04-10T06:13:47;75.20;;;27.08;;
21927;SDS011;11128;51.096;17.190;2023-04-10T06:18:48;72.90;;;27.17;;
21927;SDS011;11128;51.096;17.190;2023-04-10T06:23:51;63.15;;;26.70;;
21927;SDS011;11128;51.096;17.190;2023-04-10T06:28:53;66.65;;;27.02;;
21927;SDS011;11128;51.096;17.190;2023-04-10T06:33:54;68.63;;;29.30;;
21927;SDS011;11128;51.096;17.190;2023-04-10T06:38:55;65.03;;;27.80;;
21927;SDS011;11128;51.096;17.190;2023-04-10T06:43:56;80.65;;;27.92;;
21927;SDS011;11128;51.096;17.190;2023-04-10T06:48:58;89.93;;;28.52;;
21927;SDS011;11128;51.096;17.190;2023-04-10T06:53:59;72.30;;;29.42;;
21927;SDS011;11128;51.096;17.190;2023-04-10T06:59:00;78.25;;;30.38;;
21927;SDS011;11128;51.096;17.190;2023-04-10T07:04:01;64.93;;;26.90;;
21927;SDS011;11128;51.096;17.190;2023-04-10T07:09:05;85.32;;;32.25;;
21927;SDS011;11128;51.096;17.190;2023-04-10T07:14:06;76.03;;;29.67;;
21927;SDS011;11128;51.096;17.190;2023-04-10T07:19:08;64.03;;;29.63;;
21927;SDS011;11128;51.096;17.190;2023-04-10T07:24:09;63.08;;;27.20;;
21927;SDS011;11128;51.096;17.190;2023-04-10T07:29:11;68.35;;;28.92;;
21927;SDS011;11128;51.096;17.190;2023-04-10T07:34:13;70.20;;;30.10;;
21927;SDS011;11128;51.096;17.190;2023-04-10T07:39:14;61.78;;;28.45;;
21927;SDS011;11128;51.096;17.190;2023-04-10T07:44:15;64.55;;;28.05;;
21927;SDS011;11128;51.096;17.190;2023-04-10T07:49:17;59.65;;;27.17;;
21927;SDS011;11128;51.096;17.190;2023-04-10T07:54:18;60.83;;;27.58;;
21927;SDS011;11128;51.096;17.190;2023-04-10T07:59:19;57.08;;;26.05;;
21927;SDS011;11128;51.096;17.190;2023-04-10T08:04:20;59.55;;;27.63;;
21927;SDS011;11128;51.096;17.190;2023-04-10T08:09:22;60.08;;;25.83;;
21927;SDS011;11128;51.096;17.190;2023-04-10T08:14:23;62.33;;;26.63;;
21927;SDS011;11128;51.096;17.190;2023-04-10T08:19:24;61.53;;;27.05;;
21927;SDS011;11128;51.096;17.190;2023-04-10T08:24:25;63.55;;;26.08;;
21927;SDS011;11128;51.096;17.190;2023-04-10T08:29:27;63.08;;;28.75;;
21927;SDS011;11128;51.096;17.190;2023-04-10T08:34:28;54.88;;;25.88;;
21927;SDS011;11128;51.096;17.190;2023-04-10T08:39:29;61.78;;;27.40;;
21927;SDS011;11128;51.096;17.190;2023-04-10T08:44:30;54.80;;;26.98;;
21927;SDS011;11128;51.096;17.190;2023-04-10T08:49:51;56.03;;;26.08;;
21927;SDS011;11128;51.096;17.190;2023-04-10T08:54:55;51.13;;;24.00;;
21927;SDS011;11128;51.096;17.190;2023-04-10T08:59:58;56.60;;;25.10;;
21927;SDS011;11128;51.096;17.190;2023-04-10T09:04:59;51.45;;;25.55;;
21927;SDS011;11128;51.096;17.190;2023-04-10T09:10:04;53.92;;;25.88;;
21927;SDS011;11128;51.096;17.190;2023-04-10T09:15:07;56.45;;;24.65;;
21927;SDS011;11128;51.096;17.190;2023-04-10T09:20:19;50.88;;;24.00;;
21927;SDS011;11128;51.096;17.190;2023-04-10T09:25:28;51.38;;;23.92;;
21927;SDS011;11128;51.096;17.190;2023-04-10T09:30:39;51.47;;;25.48;;
21927;SDS011;11128;51.096;17.190;2023-04-10T09:35:42;47.35;;;24.20;;
21927;SDS011;11128;51.096;17.190;2023-04-10T09:40:43;48.22;;;25.35;;
21927;SDS011;11128;51.096;17.190;2023-04-10T09:45:46;54.53;;;25.52;;
21927;SDS011;11128;51.096;17.190;2023-04-10T09:50:50;50.13;;;24.88;;
21927;SDS011;11128;51.096;17.190;2023-04-10T09:55:51;47.67;;;23.85;;
21927;SDS011;11128;51.096;17.190;2023-04-10T10:00:54;51.50;;;23.40;;
21927;SDS011;11128;51.096;17.190;2023-04-10T10:05:55;43.80;;;22.10;;
21927;SDS011;11128;51.096;17.190;2023-04-10T10:10:57;47.10;;;22.85;;
21927;SDS011;11128;51.096;17.190;2023-04-10T10:16:08;40.83;;;21.08;;
21927;SDS011;11128;51.096;17.190;2023-04-10T10:21:18;47.47;;;24.05;;
21927;SDS011;11128;51.096;17.190;2023-04-10T10:26:20;48.05;;;24.38;;
21927;SDS011;11128;51.096;17.190;2023-04-10T10:31:24;48.03;;;24.25;;
21927;SDS011;11128;51.096;17.190;2023-04-10T10:36:25;49.05;;;24.60;;
21927;SDS011;11128;51.096;17.190;2023-04-10T10:41:31;45.75;;;23.55;;
21927;SDS011;11128;51.096;17.190;2023-04-10T10:46:50;43.78;;;22.08;;
21927;SDS011;11128;51.096;17.190;2023-04-10T10:52:00;45.88;;;24.10;;
21927;SDS011;11128;51.096;17.190;2023-04-10T10:57:02;39.38;;;21.90;;
21927;SDS011;11128;51.096;17.190;2023-04-10T11:07:13;36.70;;;20.45;;
21927;SDS011;11128;51.096;17.190;2023-04-10T11:12:15;42.80;;;22.90;;
21927;SDS011;11128;51.096;17.190;2023-04-10T11:17:45;38.30;;;20.17;;
21927;SDS011;11128;51.096;17.190;2023-04-10T11:28:07;34.83;;;18.90;;
21927;SDS011;11128;51.096;17.190;2023-04-10T11:33:09;34.78;;;19.25;;
21927;SDS011;11128;51.096;17.190;2023-04-10T11:38:17;32.75;;;18.58;;
21927;SDS011;11128;51.096;17.190;2023-04-10T11:43:19;29.38;;;18.20;;
21927;SDS011;11128;51.096;17.190;2023-04-10T11:48:20;32.22;;;17.80;;
21927;SDS011;11128;51.096;17.190;2023-04-10T11:53:21;28.55;;;17.52;;
21927;SDS011;11128;51.096;17.190;2023-04-10T12:03:35;25.75;;;16.45;;
21927;SDS011;11128;51.096;17.190;2023-04-10T12:08:38;29.27;;;17.48;;
21927;SDS011;11128;51.096;17.190;2023-04-10T12:13:41;26.63;;;16.85;;
21927;SDS011;11128;51.096;17.190;2023-04-10T12:18:42;27.45;;;15.82;;
21927;SDS011;11128;51.096;17.190;2023-04-10T12:23:47;26.48;;;16.00;;
21927;SDS011;11128;51.096;17.190;2023-04-10T12:28:49;33.75;;;20.20;;
21927;SDS011;11128;51.096;17.190;2023-04-10T12:33:52;33.22;;;18.55;;
21927;SDS011;11128;51.096;17.190;2023-04-10T12:38:57;28.27;;;17.98;;
21927;SDS011;11128;51.096;17.190;2023-04-10T12:44:10;37.67;;;22.73;;
21927;SDS011;11128;51.096;17.190;2023-04-10T12:49:13;28.17;;;16.35;;
21927;SDS011;11128;51.096;17.190;2023-04-10T12:59:32;37.80;;;21.42;;
21927;SDS011;11128;51.096;17.190;2023-04-10T13:04:34;34.78;;;20.45;;
21927;SDS011;11128;51.096;17.190;2023-04-10T13:09:35;28.80;;;17.20;;
21927;SDS011;11128;51.096;17.190;2023-04-10T13:14:37;33.47;;;17.05;;
21927;SDS011;11128;51.096;17.190;2023-04-10T13:19:38;32.72;;;17.25;;
21927;SDS011;11128;51.096;17.190;2023-04-10T13:24:40;29.92;;;17.65;;
21927;SDS011;11128;51.096;17.190;2023-04-10T13:29:41;33.65;;;18.33;;
21927;SDS011;11128;51.096;17.190;2023-04-10T13:34:43;25.15;;;15.02;;
21927;SDS011;11128;51.096;17.190;2023-04-10T13:39:44;23.77;;;14.68;;
21927;SDS011;11128;51.096;17.190;2023-04-10T13:44:45;28.92;;;17.15;;
21927;SDS011;11128;51.096;17.190;2023-04-10T13:49:47;26.98;;;15.77;;
21927;SDS011;11128;51.096;17.190;2023-04-10T13:54:48;23.80;;;14.50;;
21927;SDS011;11128;51.096;17.190;2023-04-10T13:59:49;22.90;;;13.95;;
21927;SDS011;11128;51.096;17.190;2023-04-10T14:04:50;24.02;;;14.25;;
21927;SDS011;11128;51.096;17.190;2023-04-10T14:09:52;25.52;;;14.75;;
21927;SDS011;11128;51.096;17.190;2023-04-10T14:14:53;22.30;;;14.25;;
21927;SDS011;11128;51.096;17.190;2023-04-10T14:19:54;26.88;;;16.38;;
21927;SDS011;11128;51.096;17.190;2023-04-10T14:24:55;25.35;;;14.85;;
21927;SDS011;11128;51.096;17.190;2023-04-10T14:29:56;25.73;;;14.38;;
21927;SDS011;11128;51.096;17.190;2023-04-10T14:34:58;23.52;;;14.60;;
21927;SDS011;11128;51.096;17.190;2023-04-10T14:39:59;21.05;;;14.18;;
21927;SDS011;11128;51.096;17.190;2023-04-10T14:45:01;23.10;;;13.95;;
21927;SDS011;11128;51.096;17.190;2023-04-10T14:50:02;19.42;;;11.85;;
21927;SDS011;11128;51.096;17.190;2023-04-10T14:55:04;21.55;;;13.05;;
21927;SDS011;11128;51.096;17.190;2023-04-10T15:00:05;21.05;;;13.30;;
21927;SDS011;11128;51.096;17.190;2023-04-10T15:05:07;17.95;;;11.35;;
21927;SDS011;11128;51.096;17.190;2023-04-10T15:10:08;18.70;;;12.43;;
21927;SDS011;11128;51.096;17.190;2023-04-10T15:15:13;20.75;;;12.55;;
21927;SDS011;11128;51.096;17.190;2023-04-10T15:20:14;20.55;;;13.20;;
21927;SDS011;11128;51.096;17.190;2023-04-10T15:25:15;21.67;;;13.25;;
21927;SDS011;11128;51.096;17.190;2023-04-10T15:30:16;23.13;;;14.23;;
21927;SDS011;11128;51.096;17.190;2023-04-10T15:35:18;22.35;;;13.50;;
21927;SDS011;11128;51.096;17.190;2023-04-10T15:40:20;48.00;;;25.05;;
21927;SDS011;11128;51.096;17.190;2023-04-10T15:45:21;50.80;;;26.58;;
21927;SDS011;11128;51.096;17.190;2023-04-10T15:50:23;22.65;;;13.82;;
21927;SDS011;11128;51.096;17.190;2023-04-10T15:55:24;22.00;;;12.52;;
21927;SDS011;11128;51.096;17.190;2023-04-10T16:00:25;21.13;;;12.63;;
21927;SDS011;11128;51.096;17.190;2023-04-10T16:05:26;37.15;;;20.30;;
21927;SDS011;11128;51.096;17.190;2023-04-10T16:10:27;19.92;;;12.80;;
21927;SDS011;11128;51.096;17.190;2023-04-10T16:15:38;17.77;;;11.95;;
21927;SDS011;11128;51.096;17.190;2023-04-10T16:20:39;19.75;;;11.60;;
21927;SDS011;11128;51.096;17.190;2023-04-10T16:25:41;31.77;;;18.35;;
21927;SDS011;11128;51.096;17.190;2023-04-10T16:30:42;29.50;;;15.85;;
21927;SDS011;11128;51.096;17.190;2023-04-10T16:35:43;23.42;;;12.95;;
21927;SDS011;11128;51.096;17.190;2023-04-10T16:40:45;30.33;;;15.15;;
21927;SDS011;11128;51.096;17.190;2023-04-10T16:45:52;61.40;;;28.48;;
21927;SDS011;11128;51.096;17.190;2023-04-10T16:50:57;24.98;;;14.13;;
21927;SDS011;11128;51.096;17.190;2023-04-10T16:56:05;18.67;;;11.20;;
21927;SDS011;11128;51.096;17.190;2023-04-10T17:01:16;22.02;;;12.82;;
21927;SDS011;11128;51.096;17.190;2023-04-10T17:06:24;23.40;;;13.55;;
21927;SDS011;11128;51.096;17.190;2023-04-10T17:11:26;23.95;;;15.20;;
21927;SDS011;11128;51.096;17.190;2023-04-10T17:16:28;23.17;;;14.95;;
21927;SDS011;11128;51.096;17.190;2023-04-10T17:21:29;25.27;;;16.17;;
21927;SDS011;11128;51.096;17.190;2023-04-10T17:26:31;27.17;;;15.90;;
21927;SDS011;11128;51.096;17.190;2023-04-10T17:31:32;79.57;;;33.53;;
21927;SDS011;11128;51.096;17.190;2023-04-10T17:36:34;127.50;;;50.15;;
21927;SDS011;11128;51.096;17.190;2023-04-10T17:41:35;134.70;;;55.35;;
21927;SDS011;11128;51.096;17.190;2023-04-10T17:46:36;134.18;;;54.58;;
21927;SDS011;11128;51.096;17.190;2023-04-10T17:51:38;142.57;;;59.28;;
21927;SDS011;11128;51.096;17.190;2023-04-10T17:56:41;139.77;;;59.03;;
21927;SDS011;11128;51.096;17.190;2023-04-10T18:01:42;130.18;;;55.97;;
21927;SDS011;11128;51.096;17.190;2023-04-10T18:06:43;111.20;;;49.17;;
21927;SDS011;11128;51.096;17.190;2023-04-10T18:11:46;99.90;;;42.92;;
21927;SDS011;11128;51.096;17.190;2023-04-10T18:16:49;89.10;;;41.17;;
21927;SDS011;11128;51.096;17.190;2023-04-10T18:21:50;60.55;;;30.10;;
21927;SDS011;11128;51.096;17.190;2023-04-10T18:26:52;51.33;;;26.65;;
21927;SDS011;11128;51.096;17.190;2023-04-10T18:31:54;50.50;;;26.20;;
21927;SDS011;11128;51.096;17.190;2023-04-10T18:36:55;55.20;;;28.73;;
21927;SDS011;11128;51.096;17.190;2023-04-10T18:41:56;63.15;;;31.02;;
21927;SDS011;11128;51.096;17.190;2023-04-10T18:46:57;48.90;;;26.08;;
21927;SDS011;11128;51.096;17.190;2023-04-10T18:51:59;44.65;;;24.40;;
21927;SDS011;11128;51.096;17.190;2023-04-10T18:57:00;41.15;;;23.02;;
21927;SDS011;11128;51.096;17.190;2023-04-10T19:02:01;58.70;;;27.42;;
21927;SDS011;11128;51.096;17.190;2023-04-10T19:07:03;68.07;;;31.35;;
21927;SDS011;11128;51.096;17.190;2023-04-10T19:12:04;67.03;;;33.30;;
21927;SDS011;11128;51.096;17.190;2023-04-10T19:17:05;59.20;;;30.15;;
21927;SDS011;11128;51.096;17.190;2023-04-10T19:22:06;60.70;;;30.27;;
21927;SDS011;11128;51.096;17.190;2023-04-10T19:27:08;62.20;;;31.33;;
21927;SDS011;11128;51.096;17.190;2023-04-10T19:32:09;63.70;;;32.30;;
21927;SDS011;11128;51.096;17.190;2023-04-10T19:37:11;64.85;;;32.30;;
21927;SDS011;11128;51.096;17.190;2023-04-10T19:42:12;60.97;;;31.45;;
21927;SDS011;11128;51.096;17.190;2023-04-10T19:47:13;68.70;;;35.80;;
21927;SDS011;11128;51.096;17.190;2023-04-10T19:52:14;60.97;;;32.10;;
21927;SDS011;11128;51.096;17.190;2023-04-10T19:57:16;62.28;;;32.72;;
21927;SDS011;11128;51.096;17.190;2023-04-10T20:02:17;58.75;;;30.10;;
21927;SDS011;11128;51.096;17.190;2023-04-10T20:07:19;51.55;;;28.73;;
21927;SDS011;11128;51.096;17.190;2023-04-10T20:12:20;54.53;;;27.52;;
21927;SDS011;11128;51.096;17.190;2023-04-10T20:17:21;51.88;;;27.45;;
21927;SDS011;11128;51.096;17.190;2023-04-10T20:22:22;54.42;;;26.08;;
21927;SDS011;11128;51.096;17.190;2023-04-10T20:27:24;53.33;;;27.58;;
21927;SDS011;11128;51.096;17.190;2023-04-10T20:32:25;56.67;;;27.77;;
21927;SDS011;11128;51.096;17.190;2023-04-10T20:37:27;52.33;;;27.15;;
21927;SDS011;11128;51.096;17.190;2023-04-10T20:42:28;53.65;;;28.23;;
21927;SDS011;11128;51.096;17.190;2023-04-10T20:47:29;56.38;;;25.73;;
21927;SDS011;11128;51.096;17.190;2023-04-10T20:52:30;51.90;;;24.90;;
21927;SDS011;11128;51.096;17.190;2023-04-10T20:57:32;46.20;;;24.63;;
21927;SDS011;11128;51.096;17.190;2023-04-10T21:02:33;52.30;;;26.42;;
21927;SDS011;11128;51.096;17.190;2023-04-10T21:07:35;57.17;;;27.60;;
21927;SDS011;11128;51.096;17.190;2023-04-10T21:12:36;62.95;;;29.25;;
21927;SDS011;11128;51.096;17.190;2023-04-10T21:17:37;55.58;;;28.17;;
21927;SDS011;11128;51.096;17.190;2023-04-10T21:22:39;59.78;;;28.85;;
21927;SDS011;11128;51.096;17.190;2023-04-10T21:27:40;59.58;;;29.35;;
21927;SDS011;11128;51.096;17.190;2023-04-10T21:32:41;59.03;;;28.02;;
21927;SDS011;11128;51.096;17.190;2023-04-10T21:37:44;57.03;;;27.52;;
21927;SDS011;11128;51.096;17.190;2023-04-10T21:42:45;58.83;;;27.90;;
21927;SDS011;11128;51.096;17.190;2023-04-10T21:47:46;54.72;;;27.40;;
21927;SDS011;11128;51.096;17.190;2023-04-10T21:52:47;58.25;;;27.80;;
21927;SDS011;11128;51.096;17.190;2023-04-10T21:57:49;57.22;;;27.58;;
21927;SDS011;11128;51.096;17.190;2023-04-10T22:02:50;56.13;;;27.15;;
21927;SDS011;11128;51.096;17.190;2023-04-10T22:07:51;52.75;;;26.35;;
21927;SDS011;11128;51.096;17.190;2023-04-10T22:12:53;55.60;;;26.55;;
21927;SDS011;11128;51.096;17.190;2023-04-10T22:17:54;68.20;;;30.35;;
21927;SDS011;11128;51.096;17.190;2023-04-10T22:22:55;70.22;;;31.65;;
21927;SDS011;11128;51.096;17.190;2023-04-10T22:27:56;64.88;;;29.27;;
21927;SDS011;11128;51.096;17.190;2023-04-10T22:32:58;60.05;;;27.38;;
21927;SDS011;11128;51.096;17.190;2023-04-10T22:37:59;60.78;;;29.00;;
21927;SDS011;11128;51.096;17.190;2023-04-10T22:43:03;68.20;;;31.35;;
21927;SDS011;11128;51.096;17.190;2023-04-10T22:48:04;59.95;;;29.42;;
21927;SDS011;11128;51.096;17.190;2023-04-10T22:53:06;68.40;;;30.45;;
21927;SDS011;11128;51.096;17.190;2023-04-10T22:58:08;67.90;;;31.33;;
21927;SDS011;11128;51.096;17.190;2023-04-10T23:03:10;68.20;;;30.77;;
21927;SDS011;11128;51.096;17.190;2023-04-10T23:08:11;67.70;;;31.17;;
21927;SDS011;11128;51.096;17.190;2023-04-10T23:13:12;73.13;;;32.08;;
21927;SDS011;11128;51.096;17.190;2023-04-10T23:18:13;67.40;;;29.60;;
21927;SDS011;11128;51.096;17.190;2023-04-10T23:23:15;69.22;;;31.13;;
21927;SDS011;11128;51.096;17.190;2023-04-10T23:28:17;66.72;;;30.52;;
21927;SDS011;11128;51.096;17.190;2023-04-10T23:33:19;71.90;;;30.13;;
21927;SDS011;11128;51.096;17.190;2023-04-10T23:38:20;64.50;;;30.50;;
21927;SDS011;11128;51.096;17.190;2023-04-10T23:43:22;61.38;;;28.63;;
21927;SDS011;11128;51.096;17.190;2023-04-10T23:48:23;65.90;;;30.15;;
21927;SDS011;11128;51.096;17.190;2023-04-10T23:53:24;63.60;;;29.63;;
21927;SDS011;11128;51.096;17.190;2023-04-10T23:58:25;70.07;;;31.48;;
